Decatur, GA

4:14 PM EST on December 26, 2014 (GMT -0500)
Dekalb-Peachtree | Change Station
CLOSE
Current Station
Airport
Location: Atlanta Dekalb,
Elevation: 1001 ft
Nearby Weather Stations

Elev 1001 ft 33.88 °N, 84.30 °W | Updated 21 minutes ago

Partly Cloudy
Partly Cloudy
57 °F
Feels Like 57 °F
N
4
Wind Variable Wind from NNW

Today
High -- | Low -- °F
--% Chance of Precip.
Yesterday
High -- | Low -- °F
Precip. -- in
7:40 AM 5:35 PM
Waxing Crescent, 29% visible
Pressure 30.30 in
Visibility 10.0 miles
Clouds Clear
Dew Point 29 °F
Humidity 34%
Rainfall 0.00 in
Snow Depth Not available.
UV 1 out of 12
Pollen 1.90 out of 12
Air Quality Not available.
Flu Activity Not available.
METAR KPDK 262053Z 34003KT 10SM CLR 14/M02 A3027 RMK AO2 SLP259 T01391017 55010

More Conditions Fewer Conditions

Pressure 30.30 in
Visibility 10.0 miles
Clouds Clear
Dew Point 29 °F
Humidity 34%
Rainfall 0.00 in
Snow Depth Not available.
UV 1 out of 12
Pollen 1.90 out of 12
Air Quality Not available.
Flu Activity Not available.
METAR KPDK 262053Z 34003KT 10SM CLR 14/M02 A3027 RMK AO2 SLP259 T01391017 55010

More Conditions Fewer Conditions

10-Day Weather Forecast

Almanac

Astronomy

Dec. 26, 2014 Rise Set
Actual Time
Civil Twilight
Nautical Twilight
Astronomical Twilight
Moon
Length of Visible Light
Length of Day
Tomorrow will be .
, % of the Moon is Illuminated

Today's Extremes

State Highs State Lows

Community

WunderPhotos

Upload Photos

1,780,716 photos uploaded!

WunderBlogs® & News

Nearby

Air Quality

  Air Quality AQ Index Pollutant
Not available.

Snow Depth

Station Depth Elevation

Earthquake Activity

City Distance Mag. Time & Date
Minimum magnitude displayed is 2.5.

Coastal Water Temperatures

Place Temperature

Nearby Weather Stations